createdAt,value
2023-05-09T00:02:13.816Z,35.88
2023-05-09T00:04:41.742Z,35.86
2023-05-09T00:07:10.594Z,35.77
2023-05-09T00:09:37.944Z,35.72
2023-05-09T00:12:05.854Z,35.65
2023-05-09T00:14:33.676Z,35.82
2023-05-09T00:17:01.064Z,36.00
2023-05-09T00:19:28.694Z,36.02
2023-05-09T00:21:56.448Z,36.14
2023-05-09T00:24:23.938Z,36.42
2023-05-09T00:26:51.606Z,36.83
2023-05-09T00:29:19.290Z,36.76
2023-05-09T00:31:47.592Z,36.41
2023-05-09T00:34:15.333Z,36.82
2023-05-09T00:36:42.741Z,37.44
2023-05-09T00:39:10.293Z,37.37
2023-05-09T00:41:38.019Z,37.40
2023-05-09T00:44:05.919Z,37.54
2023-05-09T00:46:33.434Z,36.83
2023-05-09T00:49:01.151Z,37.21
2023-05-09T00:51:28.803Z,37.92
2023-05-09T00:53:56.258Z,37.05
2023-05-09T00:56:24.311Z,36.66
2023-05-09T00:58:52.112Z,36.71
2023-05-09T01:01:19.558Z,36.34
2023-05-09T01:03:47.672Z,36.74
2023-05-09T01:06:22.843Z,37.43
2023-05-09T01:08:56.380Z,37.47
2023-05-09T01:11:30.638Z,37.47
2023-05-09T01:14:07.469Z,38.72
2023-05-09T01:17:03.952Z,38.40
2023-05-09T01:19:50.660Z,37.97
2023-05-09T01:22:19.599Z,37.97
2023-05-09T01:24:53.458Z,38.15
2023-05-09T01:27:57.452Z,38.98
2023-05-09T01:30:26.538Z,39.37
2023-05-09T01:32:57.923Z,38.18
2023-05-09T01:35:26.366Z,37.61
2023-05-09T01:37:54.823Z,37.50
2023-05-09T01:40:23.732Z,37.14
2023-05-09T01:43:13.133Z,37.32
2023-05-09T01:45:41.849Z,37.37
2023-05-09T01:48:09.673Z,37.74
2023-05-09T01:50:37.938Z,37.98
2023-05-09T01:53:06.547Z,38.00
2023-05-09T01:55:36.336Z,37.84
2023-05-09T01:58:05.268Z,38.11
2023-05-09T02:00:36.756Z,38.39
2023-05-09T02:03:05.290Z,38.49
2023-05-09T02:05:33.702Z,38.63
2023-05-09T02:08:01.248Z,39.26
2023-05-09T02:10:29.111Z,39.06
2023-05-09T02:12:57.479Z,39.06
2023-05-09T02:15:25.122Z,39.02
2023-05-09T02:17:52.912Z,39.24
2023-05-09T02:20:20.670Z,39.32
2023-05-09T02:22:48.391Z,39.20
2023-05-09T02:25:17.226Z,39.50
2023-05-09T02:27:46.365Z,39.92
2023-05-09T02:30:25.327Z,40.87
2023-05-09T02:33:06.343Z,41.08
2023-05-09T02:35:34.393Z,41.00
2023-05-09T02:38:02.381Z,42.75
2023-05-09T02:40:30.672Z,41.60
2023-05-09T02:42:58.118Z,41.24
2023-05-09T02:45:26.163Z,41.86
2023-05-09T02:47:53.712Z,41.70
2023-05-09T02:50:21.446Z,42.04
2023-05-09T02:52:49.237Z,41.45
2023-05-09T02:55:16.846Z,41.62
2023-05-09T02:57:44.499Z,41.27
2023-05-09T03:00:12.809Z,41.80
2023-05-09T03:02:40.365Z,41.85
2023-05-09T03:05:08.781Z,41.23
2023-05-09T03:07:36.616Z,42.40
2023-05-09T03:10:04.620Z,42.59
2023-05-09T03:12:32.254Z,41.82
2023-05-09T03:15:01.208Z,42.00
2023-05-09T03:17:29.019Z,41.58
2023-05-09T03:19:56.400Z,41.74
2023-05-09T03:22:24.193Z,41.82
2023-05-09T03:24:52.259Z,41.92
2023-05-09T03:27:19.934Z,42.53
2023-05-09T03:29:47.792Z,41.79
2023-05-09T03:32:15.900Z,42.29
2023-05-09T03:34:43.439Z,41.86
2023-05-09T03:37:11.388Z,42.31
2023-05-09T03:39:39.262Z,42.42
2023-05-09T03:42:06.648Z,42.30
2023-05-09T03:44:34.358Z,42.17
2023-05-09T03:47:01.881Z,41.85
2023-05-09T03:49:32.150Z,41.75
2023-05-09T03:52:00.069Z,41.67
2023-05-09T03:54:27.819Z,42.23
2023-05-09T03:56:56.107Z,42.09
2023-05-09T03:59:23.922Z,42.43
2023-05-09T04:01:51.501Z,44.19
2023-05-09T04:04:19.452Z,42.88
2023-05-09T04:06:47.625Z,43.21
2023-05-09T04:09:16.308Z,42.80
2023-05-09T04:11:43.977Z,43.14
2023-05-09T04:14:11.721Z,40.91
2023-05-09T04:16:39.218Z,41.45
2023-05-09T04:19:07.289Z,41.46
2023-05-09T04:21:35.755Z,41.94
2023-05-09T04:24:03.825Z,41.68
2023-05-09T04:26:32.707Z,41.27
2023-05-09T04:29:01.075Z,41.85
2023-05-09T04:31:29.089Z,42.12
2023-05-09T04:33:58.388Z,42.68
2023-05-09T04:36:27.640Z,41.37
2023-05-09T04:38:57.044Z,43.18
2023-05-09T04:41:25.099Z,42.78
2023-05-09T04:43:52.616Z,42.75
2023-05-09T04:46:20.417Z,42.25
2023-05-09T04:48:48.150Z,44.00
2023-05-09T04:51:15.570Z,44.04
2023-05-09T04:53:43.110Z,43.97
2023-05-09T04:56:11.156Z,43.48
2023-05-09T04:58:38.787Z,43.23
2023-05-09T05:01:06.809Z,43.60
2023-05-09T05:03:34.795Z,43.21
2023-05-09T05:06:02.535Z,42.86
2023-05-09T05:08:30.090Z,42.83
2023-05-09T05:10:57.954Z,41.84
2023-05-09T05:13:25.550Z,41.96
2023-05-09T05:15:54.070Z,41.76
2023-05-09T05:18:22.086Z,41.17
2023-05-09T05:20:49.518Z,41.28
2023-05-09T05:23:18.272Z,40.94
2023-05-09T05:25:45.977Z,41.30
2023-05-09T05:28:13.984Z,41.48
2023-05-09T05:30:41.948Z,40.08
2023-05-09T05:33:09.671Z,39.09
2023-05-09T05:35:37.237Z,40.50
2023-05-09T05:38:04.854Z,39.81
2023-05-09T05:40:32.566Z,40.49
2023-05-09T05:43:01.424Z,40.95
2023-05-09T05:45:30.301Z,39.88
2023-05-09T05:47:58.461Z,39.23
2023-05-09T05:50:25.921Z,40.02
2023-05-09T05:52:53.434Z,40.02
2023-05-09T05:55:21.148Z,41.75
2023-05-09T05:57:48.784Z,40.84
2023-05-09T06:00:16.888Z,40.44
2023-05-09T06:02:45.840Z,40.26
2023-05-09T06:05:14.515Z,39.74
2023-05-09T06:07:44.123Z,40.56
2023-05-09T06:10:11.994Z,40.55
2023-05-09T06:12:39.500Z,40.26
2023-05-09T06:15:07.621Z,40.00
2023-05-09T06:17:36.496Z,41.36
2023-05-09T06:20:04.232Z,42.67
2023-05-09T06:22:31.628Z,40.97
2023-05-09T06:24:59.264Z,39.69
2023-05-09T06:27:26.679Z,41.04
2023-05-09T06:29:54.125Z,40.93
2023-05-09T06:32:22.011Z,40.75
2023-05-09T06:34:49.414Z,40.56
2023-05-09T06:37:16.842Z,41.33
2023-05-09T06:39:44.548Z,41.03
2023-05-09T06:42:11.961Z,40.19
2023-05-09T06:44:39.485Z,40.38
2023-05-09T06:47:07.150Z,41.50
2023-05-09T06:49:34.575Z,41.53
2023-05-09T06:52:02.026Z,41.41
2023-05-09T06:54:29.690Z,42.63
2023-05-09T06:56:57.123Z,42.44
2023-05-09T06:59:24.511Z,41.66
2023-05-09T07:01:52.224Z,41.50
2023-05-09T07:04:19.840Z,41.04
2023-05-09T07:06:47.258Z,40.39
2023-05-09T07:09:17.591Z,39.74
2023-05-09T07:11:45.933Z,39.74
2023-05-09T07:14:13.414Z,39.58
2023-05-09T07:16:41.177Z,39.58
2023-05-09T07:19:08.582Z,40.32
2023-05-09T07:21:36.098Z,39.55
2023-05-09T07:24:03.952Z,39.40
2023-05-09T07:26:31.340Z,40.25
2023-05-09T07:28:58.778Z,39.63
2023-05-09T07:31:26.473Z,38.01
2023-05-09T07:33:54.066Z,37.56
2023-05-09T07:36:21.502Z,38.37
2023-05-09T07:38:50.579Z,38.21
2023-05-09T07:41:18.227Z,39.93
2023-05-09T07:43:45.814Z,39.20
2023-05-09T07:46:13.511Z,39.19
2023-05-09T07:48:40.954Z,38.51
2023-05-09T07:51:08.435Z,38.35
2023-05-09T07:53:36.470Z,38.40
2023-05-09T07:56:06.650Z,37.86
2023-05-09T07:58:34.081Z,38.08
2023-05-09T08:01:01.754Z,38.86
2023-05-09T08:03:29.642Z,38.02
2023-05-09T08:05:57.065Z,38.40
2023-05-09T08:08:24.636Z,37.86
2023-05-09T08:10:52.355Z,37.87
2023-05-09T08:13:19.808Z,37.48
2023-05-09T08:15:47.326Z,37.49
2023-05-09T08:18:15.083Z,37.58
2023-05-09T08:20:42.506Z,36.56
2023-05-09T08:23:09.970Z,36.73
2023-05-09T08:25:37.680Z,37.16
2023-05-09T08:28:05.125Z,36.48
2023-05-09T08:30:32.505Z,36.43
2023-05-09T08:33:00.299Z,37.05
2023-05-09T08:35:27.904Z,37.28
2023-05-09T08:37:55.278Z,37.65
2023-05-09T08:40:22.964Z,36.98
2023-05-09T08:42:50.676Z,36.76
2023-05-09T08:45:23.263Z,36.74
2023-05-09T08:47:51.402Z,36.62
2023-05-09T08:50:19.910Z,36.28
2023-05-09T08:52:48.098Z,35.81
2023-05-09T08:55:15.836Z,35.78
2023-05-09T08:57:43.321Z,35.82
2023-05-09T09:00:14.317Z,35.19
2023-05-09T09:02:43.855Z,35.16
2023-05-09T09:05:23.934Z,35.02
2023-05-09T09:07:58.082Z,36.09
2023-05-09T09:10:27.323Z,35.50
2023-05-09T09:12:57.487Z,35.79
2023-05-09T09:15:28.757Z,35.06
2023-05-09T09:18:00.221Z,35.20
2023-05-09T09:20:29.249Z,36.00
2023-05-09T09:23:01.078Z,35.12
2023-05-09T09:25:28.788Z,33.96
2023-05-09T09:27:56.212Z,34.56
2023-05-09T09:30:25.130Z,34.19
2023-05-09T09:32:52.907Z,33.30
2023-05-09T09:35:20.587Z,32.05
2023-05-09T09:37:48.157Z,32.38
2023-05-09T09:40:17.107Z,32.28
2023-05-09T09:42:46.567Z,33.18
2023-05-09T09:45:16.546Z,32.88
2023-05-09T09:47:45.503Z,32.91
2023-05-09T09:50:15.252Z,31.84
2023-05-09T09:52:50.621Z,31.52
2023-05-09T09:55:19.105Z,30.38
2023-05-09T09:57:48.205Z,29.97
2023-05-09T10:00:17.650Z,30.32
2023-05-09T10:02:55.448Z,29.63
2023-05-09T10:05:24.589Z,29.25
2023-05-09T10:07:59.858Z,30.24
2023-05-09T10:10:28.715Z,28.75
2023-05-09T10:12:58.700Z,29.43
2023-05-09T10:15:28.618Z,28.87
2023-05-09T10:17:58.180Z,29.54
2023-05-09T10:20:25.813Z,29.96
2023-05-09T10:22:56.315Z,29.69
2023-05-09T10:25:36.353Z,29.13
2023-05-09T10:28:05.472Z,30.16
2023-05-09T10:30:36.174Z,29.89
2023-05-09T10:33:07.793Z,28.75
2023-05-09T10:35:46.472Z,28.60
2023-05-09T10:38:14.498Z,27.94
2023-05-09T10:40:42.333Z,26.85
2023-05-09T10:43:09.717Z,27.03
2023-05-09T10:45:37.301Z,27.14
2023-05-09T10:48:07.231Z,27.50
2023-05-09T10:50:40.425Z,28.99
2023-05-09T10:53:11.485Z,28.71
2023-05-09T10:55:48.011Z,28.61
2023-05-09T10:58:29.536Z,27.28
2023-05-09T11:00:58.330Z,29.26
2023-05-09T11:03:27.497Z,28.29
2023-05-09T11:05:56.814Z,28.29
2023-05-09T11:08:28.728Z,28.88
2023-05-09T11:11:00.518Z,29.31
2023-05-09T11:13:32.053Z,29.43
2023-05-09T11:16:02.559Z,27.92
2023-05-09T11:18:31.198Z,28.99
2023-05-09T11:20:59.734Z,28.32
2023-05-09T11:23:28.152Z,28.95
2023-05-09T11:26:05.184Z,29.25
2023-05-09T11:28:37.779Z,28.99
2023-05-09T11:31:18.901Z,29.27
2023-05-09T11:33:54.953Z,28.18
2023-05-09T11:36:29.649Z,29.10
2023-05-09T11:39:24.647Z,30.42
2023-05-09T11:41:52.152Z,30.26
2023-05-09T11:44:21.173Z,30.11
2023-05-09T11:46:49.513Z,29.79
2023-05-09T11:49:17.777Z,29.91
2023-05-09T11:51:45.582Z,29.08
2023-05-09T11:54:14.874Z,30.07
2023-05-09T11:56:42.685Z,29.24
2023-05-09T11:59:13.234Z,29.34
2023-05-09T12:01:40.692Z,30.60
2023-05-09T12:04:09.005Z,29.68
2023-05-09T12:06:37.732Z,29.09
2023-05-09T12:09:05.209Z,29.81
2023-05-09T12:11:32.951Z,29.86
2023-05-09T12:14:00.331Z,30.32
2023-05-09T12:16:27.758Z,31.28
2023-05-09T12:18:55.487Z,31.50
2023-05-09T12:21:22.861Z,30.67
2023-05-09T12:23:52.538Z,31.55
2023-05-09T12:26:22.541Z,31.58
2023-05-09T12:28:50.415Z,31.24
2023-05-09T12:31:18.020Z,30.59
2023-05-09T12:33:45.947Z,29.88
2023-05-09T12:36:13.875Z,29.56
2023-05-09T12:38:42.122Z,30.76
2023-05-09T12:41:22.318Z,30.14
2023-05-09T12:43:58.280Z,30.36
2023-05-09T12:46:26.135Z,30.81
2023-05-09T12:48:53.990Z,30.67
2023-05-09T12:51:22.095Z,29.82
2023-05-09T12:53:49.948Z,30.52
2023-05-09T12:56:19.222Z,30.84
2023-05-09T12:58:54.293Z,30.18
2023-05-09T13:01:24.032Z,30.17
2023-05-09T13:04:05.844Z,30.48
2023-05-09T13:06:34.833Z,29.70
2023-05-09T13:09:06.178Z,29.52
2023-05-09T13:11:34.308Z,28.62
2023-05-09T13:14:04.118Z,29.26
2023-05-09T13:16:31.634Z,29.07
2023-05-09T13:18:59.390Z,30.51
2023-05-09T13:21:26.821Z,30.66
2023-05-09T13:23:54.491Z,31.63
2023-05-09T13:26:22.460Z,31.00
2023-05-09T13:28:50.106Z,30.94
2023-05-09T13:31:18.360Z,30.08
2023-05-09T13:33:46.234Z,30.50
2023-05-09T13:36:13.850Z,32.38
2023-05-09T13:38:42.144Z,31.69
2023-05-09T13:41:10.075Z,31.67
2023-05-09T13:43:38.743Z,31.49
2023-05-09T13:46:06.472Z,32.01
2023-05-09T13:48:34.231Z,31.96
2023-05-09T13:51:01.638Z,31.83
2023-05-09T13:53:29.114Z,32.37
2023-05-09T13:55:57.054Z,31.52
2023-05-09T13:58:24.504Z,32.38
2023-05-09T14:00:51.993Z,31.43
2023-05-09T14:03:19.756Z,31.50
2023-05-09T14:05:48.118Z,32.21
2023-05-09T14:08:15.646Z,32.36
2023-05-09T14:10:44.567Z,31.26
2023-05-09T14:13:12.597Z,31.53
2023-05-09T14:15:40.495Z,30.94
2023-05-09T14:18:08.356Z,30.31
2023-05-09T14:20:37.290Z,30.07
2023-05-09T14:23:04.684Z,30.87
2023-05-09T14:25:32.457Z,29.92
2023-05-09T14:27:59.893Z,30.51
2023-05-09T14:30:27.378Z,30.19
2023-05-09T14:32:55.119Z,30.59
2023-05-09T14:35:22.609Z,31.06
2023-05-09T14:37:50.082Z,32.34
2023-05-09T14:40:17.953Z,32.40
2023-05-09T14:42:45.668Z,32.35
2023-05-09T14:45:15.360Z,32.40
2023-05-09T14:47:43.032Z,31.66
2023-05-09T14:50:15.611Z,31.18
2023-05-09T14:52:44.048Z,32.62
2023-05-09T14:55:11.622Z,31.58
2023-05-09T14:57:39.080Z,31.67
2023-05-09T15:00:19.568Z,31.18
2023-05-09T15:02:49.793Z,31.05
2023-05-09T15:05:17.875Z,31.98
2023-05-09T15:07:45.840Z,32.22
2023-05-09T15:10:13.489Z,32.74
2023-05-09T15:12:41.357Z,31.81
2023-05-09T15:15:12.993Z,32.28
2023-05-09T15:17:40.715Z,32.61
2023-05-09T15:20:08.621Z,32.85
2023-05-09T15:22:36.067Z,33.07
2023-05-09T15:25:06.176Z,33.47
2023-05-09T15:27:33.846Z,32.76
2023-05-09T15:30:01.319Z,33.28
2023-05-09T15:32:29.598Z,32.36
2023-05-09T15:34:57.163Z,32.10
2023-05-09T15:37:24.705Z,31.54
2023-05-09T15:39:52.365Z,32.05
2023-05-09T15:42:19.821Z,32.63
2023-05-09T15:44:50.044Z,32.83
2023-05-09T15:47:17.961Z,32.52
2023-05-09T15:49:45.405Z,33.37
2023-05-09T15:52:12.906Z,33.38
2023-05-09T15:54:40.801Z,33.62
2023-05-09T15:57:08.223Z,33.18
2023-05-09T15:59:35.796Z,33.38
2023-05-09T16:02:03.484Z,34.92
2023-05-09T16:04:31.325Z,34.20
2023-05-09T16:06:59.993Z,34.32
2023-05-09T16:09:27.831Z,34.04
2023-05-09T16:11:55.922Z,34.23
2023-05-09T16:14:23.498Z,34.50
2023-05-09T16:16:52.562Z,34.60
2023-05-09T16:19:20.272Z,34.47
2023-05-09T16:21:47.712Z,33.97
2023-05-09T16:24:15.374Z,34.23
2023-05-09T16:26:43.120Z,34.00
2023-05-09T16:29:11.237Z,35.46
2023-05-09T16:31:38.724Z,36.14
2023-05-09T16:34:06.663Z,35.14
2023-05-09T16:36:34.433Z,35.14
2023-05-09T16:39:01.951Z,35.28
2023-05-09T16:41:29.746Z,34.79
2023-05-09T16:43:57.404Z,34.64
2023-05-09T16:46:24.904Z,34.91
2023-05-09T16:48:52.875Z,34.90
2023-05-09T16:51:20.341Z,35.12
2023-05-09T16:53:47.798Z,34.23
2023-05-09T16:56:15.536Z,34.78
2023-05-09T16:58:44.801Z,33.97
2023-05-09T17:01:12.502Z,34.17
2023-05-09T17:03:40.216Z,34.02
2023-05-09T17:06:07.647Z,33.82
2023-05-09T17:08:35.188Z,33.97
2023-05-09T17:11:02.958Z,33.93
2023-05-09T17:13:30.671Z,34.05
2023-05-09T17:15:58.359Z,33.97
2023-05-09T17:18:37.009Z,33.69
2023-05-09T17:21:06.608Z,33.32
2023-05-09T17:23:34.290Z,33.51
2023-05-09T17:26:01.731Z,33.64
2023-05-09T17:28:29.121Z,33.82
2023-05-09T17:30:59.056Z,34.16
2023-05-09T17:33:27.149Z,34.40
2023-05-09T17:35:54.819Z,34.29
2023-05-09T17:38:22.527Z,34.00
2023-05-09T17:40:50.059Z,34.09
2023-05-09T17:43:17.462Z,34.55
2023-05-09T17:45:46.300Z,33.76
2023-05-09T17:48:14.368Z,33.77
2023-05-09T17:50:43.618Z,34.00
2023-05-09T17:53:11.367Z,34.13
2023-05-09T17:55:39.132Z,33.86
2023-05-09T17:58:08.052Z,34.17
2023-05-09T18:00:35.836Z,34.16
2023-05-09T18:03:04.092Z,34.06
2023-05-09T18:05:32.124Z,34.04
2023-05-09T18:08:01.304Z,34.32
2023-05-09T18:10:29.075Z,34.41
2023-05-09T18:12:57.157Z,34.38
2023-05-09T18:15:24.762Z,34.37
2023-05-09T18:17:53.813Z,34.35
2023-05-09T18:20:22.041Z,34.56
2023-05-09T18:22:49.534Z,34.65
2023-05-09T18:25:17.298Z,34.35
2023-05-09T18:27:45.084Z,34.24
2023-05-09T18:30:12.974Z,35.14
2023-05-09T18:32:41.037Z,34.62
2023-05-09T18:35:09.110Z,34.89
2023-05-09T18:37:37.033Z,35.06
2023-05-09T18:40:05.541Z,34.89
2023-05-09T18:42:33.228Z,35.13
2023-05-09T18:45:00.984Z,34.76
2023-05-09T18:47:28.613Z,34.70
2023-05-09T18:49:56.432Z,34.81
2023-05-09T18:52:24.121Z,35.38
2023-05-09T18:54:51.570Z,36.34
2023-05-09T18:57:20.120Z,35.78
2023-05-09T18:59:47.956Z,35.38
2023-05-09T19:02:15.455Z,35.17
2023-05-09T19:04:46.052Z,34.95
2023-05-09T19:07:15.013Z,34.99
2023-05-09T19:09:42.766Z,35.16
2023-05-09T19:12:10.482Z,34.93
2023-05-09T19:14:38.117Z,35.41
2023-05-09T19:17:06.214Z,35.22
2023-05-09T19:19:34.450Z,35.48
2023-05-09T19:22:02.258Z,35.62
2023-05-09T19:24:32.388Z,35.90
2023-05-09T19:27:00.088Z,36.11
2023-05-09T19:29:28.058Z,35.98
2023-05-09T19:31:56.305Z,36.34
2023-05-09T19:34:24.483Z,35.99
2023-05-09T19:36:52.129Z,36.13
2023-05-09T19:39:20.324Z,36.22
2023-05-09T19:41:48.202Z,36.45
2023-05-09T19:44:15.934Z,36.71
2023-05-09T19:46:43.966Z,36.30
2023-05-09T19:49:12.186Z,36.50
2023-05-09T19:51:39.856Z,36.47
2023-05-09T19:54:07.969Z,36.37
2023-05-09T19:56:35.591Z,36.75
2023-05-09T19:59:03.124Z,36.77
2023-05-09T20:01:31.325Z,36.60
2023-05-09T20:03:59.343Z,36.72
2023-05-09T20:06:26.830Z,36.91
2023-05-09T20:08:54.276Z,37.12
2023-05-09T20:11:22.394Z,37.09
2023-05-09T20:13:49.842Z,37.30
2023-05-09T20:16:17.478Z,37.38
2023-05-09T20:18:45.147Z,37.33
2023-05-09T20:21:12.586Z,38.20
2023-05-09T20:23:40.008Z,37.78
2023-05-09T20:26:07.865Z,38.09
2023-05-09T20:28:35.277Z,37.76
2023-05-09T20:31:03.331Z,38.10
2023-05-09T20:33:30.988Z,37.96
2023-05-09T20:35:58.569Z,38.06
2023-05-09T20:38:26.117Z,38.33
2023-05-09T20:40:53.753Z,39.00
2023-05-09T20:43:21.059Z,38.76
2023-05-09T20:45:48.750Z,38.56
2023-05-09T20:48:16.513Z,38.76
2023-05-09T20:50:43.943Z,39.03
2023-05-09T20:53:11.324Z,39.05
2023-05-09T20:55:39.064Z,39.46
2023-05-09T20:58:06.421Z,39.06
2023-05-09T21:00:34.000Z,39.19
2023-05-09T21:03:01.936Z,38.98
2023-05-09T21:05:29.653Z,39.36
2023-05-09T21:07:56.985Z,38.84
2023-05-09T21:10:24.571Z,38.29
2023-05-09T21:12:51.919Z,38.26
2023-05-09T21:15:19.356Z,38.42
2023-05-09T21:17:46.982Z,38.23
2023-05-09T21:20:14.720Z,38.08
2023-05-09T21:22:42.272Z,38.07
2023-05-09T21:25:10.068Z,38.08
2023-05-09T21:27:37.494Z,38.34
2023-05-09T21:30:05.495Z,38.23
2023-05-09T21:32:33.158Z,38.40
2023-05-09T21:35:01.827Z,38.55
2023-05-09T21:37:29.196Z,38.64
2023-05-09T21:39:57.223Z,38.51
2023-05-09T21:42:24.574Z,38.73
2023-05-09T21:44:51.976Z,38.49
2023-05-09T21:47:19.722Z,38.81
2023-05-09T21:49:47.137Z,39.46
2023-05-09T21:52:16.522Z,39.53
2023-05-09T21:54:44.271Z,39.69
2023-05-09T21:57:11.719Z,40.34
2023-05-09T21:59:39.084Z,39.93
2023-05-09T22:02:06.773Z,40.56
2023-05-09T22:04:34.496Z,40.99
2023-05-09T22:07:01.881Z,40.38
2023-05-09T22:09:29.815Z,40.32
2023-05-09T22:11:57.482Z,40.43
2023-05-09T22:14:24.828Z,40.40
2023-05-09T22:16:52.173Z,40.76
2023-05-09T22:19:19.803Z,40.86
2023-05-09T22:21:48.861Z,41.66
2023-05-09T22:24:16.305Z,41.26
2023-05-09T22:26:43.977Z,42.26
2023-05-09T22:29:11.325Z,41.59
2023-05-09T22:31:38.784Z,41.51
2023-05-09T22:34:06.602Z,42.11
2023-05-09T22:36:33.955Z,41.86
2023-05-09T22:39:01.520Z,41.89
2023-05-09T22:41:29.197Z,41.77
2023-05-09T22:43:56.544Z,41.97
2023-05-09T22:46:24.051Z,42.28
2023-05-09T22:48:51.763Z,42.29
2023-05-09T22:51:19.130Z,42.47
2023-05-09T22:53:46.719Z,42.70
2023-05-09T22:56:14.366Z,43.20
2023-05-09T22:58:42.048Z,43.32
2023-05-09T23:01:09.655Z,43.78
2023-05-09T23:03:37.337Z,43.83
2023-05-09T23:06:04.827Z,44.05
2023-05-09T23:08:32.187Z,44.20
2023-05-09T23:10:59.848Z,44.45
2023-05-09T23:13:27.530Z,44.56
2023-05-09T23:15:55.000Z,44.09
2023-05-09T23:18:24.062Z,44.17
2023-05-09T23:20:51.462Z,44.21
2023-05-09T23:23:18.849Z,44.53
2023-05-09T23:25:46.538Z,46.05
2023-05-09T23:28:13.912Z,45.35
2023-05-09T23:30:41.305Z,45.98
2023-05-09T23:33:09.016Z,45.16
2023-05-09T23:35:36.399Z,45.23
2023-05-09T23:38:04.645Z,45.06
2023-05-09T23:40:32.287Z,45.47
2023-05-09T23:42:59.649Z,45.47
2023-05-09T23:45:27.657Z,45.42
2023-05-09T23:47:55.395Z,46.08
2023-05-09T23:50:23.225Z,45.63
2023-05-09T23:52:51.231Z,46.22
2023-05-09T23:55:18.959Z,46.59
2023-05-09T23:57:46.418Z,46.31
